createdAt,value
2023-04-02T16:05:01.587Z,9.88
2023-04-02T16:10:01.553Z,9.29
2023-04-02T16:15:01.489Z,8.99
2023-04-02T16:20:02.421Z,8.85
2023-04-02T16:25:01.358Z,8.79
2023-04-02T16:30:01.310Z,8.75
2023-04-02T16:35:15.221Z,8.71
2023-04-02T16:40:02.232Z,8.63
2023-04-02T16:45:01.034Z,8.54
2023-04-02T16:50:01.902Z,8.44
2023-04-02T16:55:00.996Z,8.34
2023-04-02T17:00:00.858Z,8.23
2023-04-02T17:05:00.828Z,8.11
2023-04-02T17:10:00.763Z,7.97
2023-04-02T17:15:00.708Z,7.83
2023-04-02T17:20:00.661Z,7.69
2023-04-02T17:25:00.545Z,7.53
2023-04-02T17:30:00.665Z,7.38
2023-04-02T17:35:00.416Z,7.23
2023-04-02T17:40:00.396Z,7.08
2023-04-02T17:45:00.265Z,6.96
2023-04-02T17:50:00.228Z,6.85
2023-04-02T17:55:00.164Z,6.76
2023-04-02T18:00:00.202Z,6.68
2023-04-02T18:05:00.017Z,6.61
2023-04-02T18:09:59.973Z,6.53
2023-04-02T18:14:59.887Z,6.45
2023-04-02T18:19:59.853Z,6.38
2023-04-02T18:24:59.782Z,6.31
2023-04-02T18:29:59.708Z,6.27
2023-04-02T18:34:59.630Z,6.24
2023-04-02T18:39:59.557Z,6.23
2023-04-02T18:44:59.533Z,6.23
2023-04-02T18:49:59.442Z,6.25
2023-04-02T18:54:59.396Z,6.27
2023-04-02T18:59:59.345Z,6.30
2023-04-02T19:04:59.264Z,6.32
2023-04-02T19:09:59.195Z,6.35
2023-04-02T19:14:59.095Z,6.38
2023-04-02T19:19:59.038Z,6.40
2023-04-02T19:24:59.025Z,6.40
2023-04-02T19:29:58.913Z,6.40
2023-04-02T19:34:58.895Z,6.40
2023-04-02T19:39:58.808Z,6.40
2023-04-02T19:44:58.712Z,6.40
2023-04-02T19:49:58.698Z,6.40
2023-04-02T19:54:58.580Z,6.40
2023-04-02T19:59:58.542Z,6.40
2023-04-02T20:04:58.439Z,6.39
2023-04-02T20:09:59.376Z,6.38
2023-04-02T20:14:58.335Z,6.36
2023-04-02T20:19:58.259Z,6.34
2023-04-02T20:24:58.174Z,6.32
2023-04-02T20:29:58.122Z,6.30
2023-04-02T20:34:58.034Z,6.27
2023-04-02T20:39:57.989Z,6.24
2023-04-02T20:44:57.939Z,6.22
2023-04-02T20:49:57.922Z,6.20
2023-04-02T20:54:57.800Z,6.17
2023-04-02T20:59:57.730Z,6.13
2023-04-02T21:04:57.690Z,6.10
2023-04-02T21:09:57.751Z,6.07
2023-04-02T21:14:57.869Z,6.05
2023-04-02T21:19:57.476Z,6.02
2023-04-02T21:24:57.389Z,5.98
2023-04-02T21:29:57.356Z,5.95
2023-04-02T21:34:57.394Z,5.92
2023-04-02T21:39:57.218Z,5.90
2023-04-02T21:44:57.120Z,5.89
2023-04-02T21:49:57.082Z,5.87
2023-04-02T21:54:56.980Z,5.83
2023-04-02T21:59:57.913Z,5.76
2023-04-02T22:04:56.864Z,5.67
2023-04-02T22:09:56.803Z,5.55
2023-04-02T22:14:56.759Z,5.43
2023-04-02T22:19:56.712Z,5.31
2023-04-02T22:24:56.609Z,5.17
2023-04-02T22:29:56.528Z,5.03
2023-04-02T22:34:56.457Z,4.89
2023-04-02T22:39:56.379Z,4.76
2023-04-02T22:44:56.484Z,4.65
2023-04-02T22:49:56.276Z,4.57
2023-04-02T22:54:56.202Z,4.52
2023-04-02T22:59:56.144Z,4.50
2023-04-02T23:04:56.082Z,4.48
2023-04-02T23:09:56.905Z,4.47
2023-04-02T23:14:55.968Z,4.46
2023-04-02T23:19:55.887Z,4.48
2023-04-02T23:24:56.591Z,4.51
2023-04-02T23:29:55.764Z,4.54
2023-04-02T23:34:55.681Z,4.58
2023-04-02T23:39:55.607Z,4.63
2023-04-02T23:44:55.563Z,4.67
2023-04-02T23:49:55.492Z,4.71
2023-04-02T23:54:55.382Z,4.76
2023-04-02T23:59:55.381Z,4.81
